sensor_id;sensor_type;location;lat;lon;timestamp;temperature;humidity
39033;DHT22;24794;51.982;5.878;2023-01-29T00:00:19;3.20;99.90
39033;DHT22;24794;51.982;5.878;2023-01-29T00:01:20;3.20;99.90
39033;DHT22;24794;51.982;5.878;2023-01-29T00:02:21;3.20;99.90
39033;DHT22;24794;51.982;5.878;2023-01-29T00:03:21;3.20;99.90
39033;DHT22;24794;51.982;5.878;2023-01-29T00:04:22;3.20;99.90
39033;DHT22;24794;51.982;5.878;2023-01-29T00:05:23;3.20;99.90
39033;DHT22;24794;51.982;5.878;2023-01-29T00:06:24;3.20;99.90
39033;DHT22;24794;51.982;5.878;2023-01-29T00:07:25;3.30;99.90
39033;DHT22;24794;51.982;5.878;2023-01-29T00:08:25;3.30;99.90
39033;DHT22;24794;51.982;5.878;2023-01-29T00:09:27;3.30;99.90
39033;DHT22;24794;51.982;5.878;2023-01-29T00:10:27;3.30;99.90
39033;DHT22;24794;51.982;5.878;2023-01-29T00:11:28;3.30;99.90
39033;DHT22;24794;51.982;5.878;2023-01-29T00:12:30;3.30;99.90
39033;DHT22;24794;51.982;5.878;2023-01-29T00:13:31;3.30;99.90
39033;DHT22;24794;51.982;5.878;2023-01-29T00:14:33;3.30;99.90
39033;DHT22;24794;51.982;5.878;2023-01-29T00:15:34;3.30;99.90
39033;DHT22;24794;51.982;5.878;2023-01-29T00:16:35;3.30;99.90
39033;DHT22;24794;51.982;5.878;2023-01-29T00:17:36;3.30;99.90
39033;DHT22;24794;51.982;5.878;2023-01-29T00:18:40;3.30;99.90
39033;DHT22;24794;51.982;5.878;2023-01-29T00:19:40;3.30;99.90
39033;DHT22;24794;51.982;5.878;2023-01-29T00:20:42;3.30;99.90
39033;DHT22;24794;51.982;5.878;2023-01-29T00:21:43;3.30;99.90
39033;DHT22;24794;51.982;5.878;2023-01-29T00:22:44;3.30;99.90
39033;DHT22;24794;51.982;5.878;2023-01-29T00:23:45;3.30;99.90
39033;DHT22;24794;51.982;5.878;2023-01-29T00:24:45;3.30;99.90
39033;DHT22;24794;51.982;5.878;2023-01-29T00:25:46;3.30;99.90
39033;DHT22;24794;51.982;5.878;2023-01-29T00:26:46;3.20;99.90
39033;DHT22;24794;51.982;5.878;2023-01-29T00:27:49;3.30;99.90
39033;DHT22;24794;51.982;5.878;2023-01-29T00:28:50;3.20;99.90
39033;DHT22;24794;51.982;5.878;2023-01-29T00:29:50;3.20;99.90
39033;DHT22;24794;51.982;5.878;2023-01-29T00:31:13;3.20;99.90
39033;DHT22;24794;51.982;5.878;2023-01-29T00:32:14;3.20;99.90
39033;DHT22;24794;51.982;5.878;2023-01-29T00:33:15;3.20;99.90
39033;DHT22;24794;51.982;5.878;2023-01-29T00:34:15;3.20;99.90
39033;DHT22;24794;51.982;5.878;2023-01-29T00:35:16;3.20;99.90
39033;DHT22;24794;51.982;5.878;2023-01-29T00:36:18;3.20;99.90
39033;DHT22;24794;51.982;5.878;2023-01-29T00:37:19;3.30;99.90
39033;DHT22;24794;51.982;5.878;2023-01-29T00:38:20;3.30;99.90
39033;DHT22;24794;51.982;5.878;2023-01-29T00:39:20;3.30;99.90
39033;DHT22;24794;51.982;5.878;2023-01-29T00:40:25;3.30;99.90
39033;DHT22;24794;51.982;5.878;2023-01-29T00:41:27;3.30;99.90
39033;DHT22;24794;51.982;5.878;2023-01-29T00:42:47;3.30;99.90
39033;DHT22;24794;51.982;5.878;2023-01-29T00:44:06;3.30;99.90
39033;DHT22;24794;51.982;5.878;2023-01-29T00:45:25;3.30;99.90
39033;DHT22;24794;51.982;5.878;2023-01-29T00:46:26;3.30;99.90
39033;DHT22;24794;51.982;5.878;2023-01-29T00:47:26;3.30;99.90
39033;DHT22;24794;51.982;5.878;2023-01-29T00:48:30;3.30;99.90
39033;DHT22;24794;51.982;5.878;2023-01-29T00:49:30;3.30;99.90
39033;DHT22;24794;51.982;5.878;2023-01-29T00:50:31;3.40;99.90
39033;DHT22;24794;51.982;5.878;2023-01-29T00:51:32;3.40;99.90
39033;DHT22;24794;51.982;5.878;2023-01-29T00:52:32;3.40;99.90
39033;DHT22;24794;51.982;5.878;2023-01-29T00:53:35;3.40;99.90
39033;DHT22;24794;51.982;5.878;2023-01-29T00:54:36;3.40;99.90
39033;DHT22;24794;51.982;5.878;2023-01-29T00:55:37;3.40;99.90
39033;DHT22;24794;51.982;5.878;2023-01-29T00:56:37;3.40;99.90
39033;DHT22;24794;51.982;5.878;2023-01-29T00:57:38;3.40;99.90
39033;DHT22;24794;51.982;5.878;2023-01-29T00:58:39;3.40;99.90
39033;DHT22;24794;51.982;5.878;2023-01-29T00:59:39;3.40;99.90
39033;DHT22;24794;51.982;5.878;2023-01-29T01:00:40;3.40;99.90
39033;DHT22;24794;51.982;5.878;2023-01-29T01:01:40;3.30;99.90
39033;DHT22;24794;51.982;5.878;2023-01-29T01:03:00;3.30;99.90
39033;DHT22;24794;51.982;5.878;2023-01-29T01:04:08;3.30;99.90
39033;DHT22;24794;51.982;5.878;2023-01-29T01:05:10;3.30;99.90
39033;DHT22;24794;51.982;5.878;2023-01-29T01:06:17;3.30;99.90
39033;DHT22;24794;51.982;5.878;2023-01-29T01:07:18;3.30;99.90
39033;DHT22;24794;51.982;5.878;2023-01-29T01:08:18;3.30;99.90
39033;DHT22;24794;51.982;5.878;2023-01-29T01:09:37;3.30;99.90
39033;DHT22;24794;51.982;5.878;2023-01-29T01:10:58;3.30;99.90
39033;DHT22;24794;51.982;5.878;2023-01-29T01:11:59;3.30;99.90
39033;DHT22;24794;51.982;5.878;2023-01-29T01:13:04;3.30;99.90
39033;DHT22;24794;51.982;5.878;2023-01-29T01:14:05;3.30;99.90
39033;DHT22;24794;51.982;5.878;2023-01-29T01:15:06;3.20;99.90
39033;DHT22;24794;51.982;5.878;2023-01-29T01:16:13;3.20;99.90
39033;DHT22;24794;51.982;5.878;2023-01-29T01:17:14;3.20;99.90
39033;DHT22;24794;51.982;5.878;2023-01-29T01:18:14;3.20;99.90
39033;DHT22;24794;51.982;5.878;2023-01-29T01:19:15;3.20;99.90
39033;DHT22;24794;51.982;5.878;2023-01-29T01:20:16;3.10;99.90
39033;DHT22;24794;51.982;5.878;2023-01-29T01:21:17;3.10;99.90
39033;DHT22;24794;51.982;5.878;2023-01-29T01:22:17;3.10;99.90
39033;DHT22;24794;51.982;5.878;2023-01-29T01:23:18;3.10;99.90
39033;DHT22;24794;51.982;5.878;2023-01-29T01:24:19;3.10;99.90
39033;DHT22;24794;51.982;5.878;2023-01-29T01:25:21;3.10;99.90
39033;DHT22;24794;51.982;5.878;2023-01-29T01:26:22;3.10;99.90
39033;DHT22;24794;51.982;5.878;2023-01-29T01:27:22;3.10;99.90
39033;DHT22;24794;51.982;5.878;2023-01-29T01:28:25;3.10;99.90
39033;DHT22;24794;51.982;5.878;2023-01-29T01:29:25;3.10;99.90
39033;DHT22;24794;51.982;5.878;2023-01-29T01:30:26;3.10;99.90
39033;DHT22;24794;51.982;5.878;2023-01-29T01:31:27;3.10;99.90
39033;DHT22;24794;51.982;5.878;2023-01-29T01:32:27;3.10;99.90
39033;DHT22;24794;51.982;5.878;2023-01-29T01:33:28;3.10;99.90
39033;DHT22;24794;51.982;5.878;2023-01-29T01:34:28;3.20;99.90
39033;DHT22;24794;51.982;5.878;2023-01-29T01:35:29;3.10;99.90
39033;DHT22;24794;51.982;5.878;2023-01-29T01:36:30;3.10;99.90
39033;DHT22;24794;51.982;5.878;2023-01-29T01:37:31;3.10;99.90
39033;DHT22;24794;51.982;5.878;2023-01-29T01:38:32;3.10;99.90
39033;DHT22;24794;51.982;5.878;2023-01-29T01:39:32;3.10;99.90
39033;DHT22;24794;51.982;5.878;2023-01-29T01:40:33;3.10;99.90
39033;DHT22;24794;51.982;5.878;2023-01-29T01:41:34;3.10;99.90
39033;DHT22;24794;51.982;5.878;2023-01-29T01:42:34;3.10;99.90
39033;DHT22;24794;51.982;5.878;2023-01-29T01:43:54;3.10;99.90
39033;DHT22;24794;51.982;5.878;2023-01-29T01:45:02;3.10;99.90
39033;DHT22;24794;51.982;5.878;2023-01-29T01:46:04;3.10;99.90
39033;DHT22;24794;51.982;5.878;2023-01-29T01:47:05;3.20;99.90
39033;DHT22;24794;51.982;5.878;2023-01-29T01:49:16;3.20;99.90
39033;DHT22;24794;51.982;5.878;2023-01-29T01:51:24;3.20;99.90
39033;DHT22;24794;51.982;5.878;2023-01-29T01:52:25;3.20;99.90
39033;DHT22;24794;51.982;5.878;2023-01-29T01:53:38;3.20;99.90
39033;DHT22;24794;51.982;5.878;2023-01-29T01:54:39;3.20;99.90
39033;DHT22;24794;51.982;5.878;2023-01-29T01:55:44;3.20;99.90
39033;DHT22;24794;51.982;5.878;2023-01-29T01:56:51;3.20;99.90
39033;DHT22;24794;51.982;5.878;2023-01-29T01:58:04;3.20;99.90
39033;DHT22;24794;51.982;5.878;2023-01-29T01:59:09;3.20;99.90
39033;DHT22;24794;51.982;5.878;2023-01-29T02:00:14;3.20;99.90
39033;DHT22;24794;51.982;5.878;2023-01-29T02:01:16;3.30;99.90
39033;DHT22;24794;51.982;5.878;2023-01-29T02:02:17;3.30;99.90
39033;DHT22;24794;51.982;5.878;2023-01-29T02:03:53;3.30;99.90
39033;DHT22;24794;51.982;5.878;2023-01-29T02:05:14;3.20;99.90
39033;DHT22;24794;51.982;5.878;2023-01-29T02:06:34;3.20;99.90
39033;DHT22;24794;51.982;5.878;2023-01-29T02:07:54;3.20;99.90
39033;DHT22;24794;51.982;5.878;2023-01-29T02:09:19;3.10;99.90
39033;DHT22;24794;51.982;5.878;2023-01-29T02:10:43;3.10;99.90
39033;DHT22;24794;51.982;5.878;2023-01-29T02:11:44;3.10;99.90
39033;DHT22;24794;51.982;5.878;2023-01-29T02:12:45;3.10;99.90
39033;DHT22;24794;51.982;5.878;2023-01-29T02:13:46;3.10;99.90
39033;DHT22;24794;51.982;5.878;2023-01-29T02:14:46;3.10;99.90
39033;DHT22;24794;51.982;5.878;2023-01-29T02:15:47;3.10;99.90
39033;DHT22;24794;51.982;5.878;2023-01-29T02:16:48;3.00;99.90
39033;DHT22;24794;51.982;5.878;2023-01-29T02:17:49;3.00;99.90
39033;DHT22;24794;51.982;5.878;2023-01-29T02:18:50;3.10;99.90
39033;DHT22;24794;51.982;5.878;2023-01-29T02:20:17;3.00;99.90
39033;DHT22;24794;51.982;5.878;2023-01-29T02:24:25;3.00;99.90
39033;DHT22;24794;51.982;5.878;2023-01-29T02:28:24;3.00;99.90
39033;DHT22;24794;51.982;5.878;2023-01-29T02:31:38;3.00;99.90
39033;DHT22;24794;51.982;5.878;2023-01-29T02:32:58;3.00;99.90
39033;DHT22;24794;51.982;5.878;2023-01-29T02:34:13;3.00;99.90
39033;DHT22;24794;51.982;5.878;2023-01-29T02:35:31;3.00;99.90
39033;DHT22;24794;51.982;5.878;2023-01-29T02:36:43;3.00;99.90
39033;DHT22;24794;51.982;5.878;2023-01-29T02:37:54;3.00;99.90
39033;DHT22;24794;51.982;5.878;2023-01-29T02:39:29;3.00;99.90
39033;DHT22;24794;51.982;5.878;2023-01-29T02:40:54;3.00;99.90
39033;DHT22;24794;51.982;5.878;2023-01-29T02:42:12;3.00;99.90
39033;DHT22;24794;51.982;5.878;2023-01-29T02:43:35;3.10;99.90
39033;DHT22;24794;51.982;5.878;2023-01-29T02:44:46;3.10;99.90
39033;DHT22;24794;51.982;5.878;2023-01-29T02:47:47;3.00;99.90
39033;DHT22;24794;51.982;5.878;2023-01-29T02:51:17;2.90;99.90
39033;DHT22;24794;51.982;5.878;2023-01-29T02:52:24;2.90;99.90
39033;DHT22;24794;51.982;5.878;2023-01-29T02:54:57;2.80;99.90
39033;DHT22;24794;51.982;5.878;2023-01-29T02:56:19;2.80;99.90
39033;DHT22;24794;51.982;5.878;2023-01-29T02:57:24;2.80;99.90
39033;DHT22;24794;51.982;5.878;2023-01-29T02:58:46;2.70;99.90
39033;DHT22;24794;51.982;5.878;2023-01-29T03:00:06;2.70;99.90
39033;DHT22;24794;51.982;5.878;2023-01-29T03:01:17;2.70;99.90
39033;DHT22;24794;51.982;5.878;2023-01-29T03:02:26;2.70;99.90
39033;DHT22;24794;51.982;5.878;2023-01-29T03:03:33;2.70;99.90
39033;DHT22;24794;51.982;5.878;2023-01-29T03:04:40;2.80;99.90
39033;DHT22;24794;51.982;5.878;2023-01-29T03:05:44;2.80;99.90
39033;DHT22;24794;51.982;5.878;2023-01-29T03:07:06;2.80;99.90
39033;DHT22;24794;51.982;5.878;2023-01-29T03:08:13;2.80;99.90
39033;DHT22;24794;51.982;5.878;2023-01-29T03:09:24;2.80;99.90
39033;DHT22;24794;51.982;5.878;2023-01-29T03:10:56;2.80;99.90
39033;DHT22;24794;51.982;5.878;2023-01-29T03:12:16;2.80;99.90
39033;DHT22;24794;51.982;5.878;2023-01-29T03:14:50;2.80;99.90
39033;DHT22;24794;51.982;5.878;2023-01-29T03:16:26;2.90;99.90
39033;DHT22;24794;51.982;5.878;2023-01-29T03:17:35;2.90;99.90
39033;DHT22;24794;51.982;5.878;2023-01-29T03:18:40;2.90;99.90
39033;DHT22;24794;51.982;5.878;2023-01-29T03:19:46;2.90;99.90
39033;DHT22;24794;51.982;5.878;2023-01-29T03:21:02;2.90;99.90
39033;DHT22;24794;51.982;5.878;2023-01-29T03:22:25;2.90;99.90
39033;DHT22;24794;51.982;5.878;2023-01-29T03:23:33;2.90;99.90
39033;DHT22;24794;51.982;5.878;2023-01-29T03:24:56;2.90;99.90
39033;DHT22;24794;51.982;5.878;2023-01-29T03:26:17;2.90;99.90
39033;DHT22;24794;51.982;5.878;2023-01-29T03:27:44;2.90;99.90
39033;DHT22;24794;51.982;5.878;2023-01-29T03:29:05;2.90;99.90
39033;DHT22;24794;51.982;5.878;2023-01-29T03:30:27;2.90;99.90
39033;DHT22;24794;51.982;5.878;2023-01-29T03:31:49;2.90;99.90
39033;DHT22;24794;51.982;5.878;2023-01-29T03:33:06;2.90;99.90
39033;DHT22;24794;51.982;5.878;2023-01-29T03:34:12;2.90;99.90
39033;DHT22;24794;51.982;5.878;2023-01-29T03:35:21;2.90;99.90
39033;DHT22;24794;51.982;5.878;2023-01-29T03:36:39;2.90;99.90
39033;DHT22;24794;51.982;5.878;2023-01-29T03:37:46;2.90;99.90
39033;DHT22;24794;51.982;5.878;2023-01-29T03:38:47;2.80;99.90
39033;DHT22;24794;51.982;5.878;2023-01-29T03:39:48;2.90;99.90
39033;DHT22;24794;51.982;5.878;2023-01-29T03:40:53;2.90;99.90
39033;DHT22;24794;51.982;5.878;2023-01-29T03:44:27;2.90;99.90
39033;DHT22;24794;51.982;5.878;2023-01-29T03:51:21;2.80;99.90
39033;DHT22;24794;51.982;5.878;2023-01-29T03:52:50;2.80;99.90
39033;DHT22;24794;51.982;5.878;2023-01-29T03:54:09;2.80;99.90
39033;DHT22;24794;51.982;5.878;2023-01-29T03:55:29;2.80;99.90
39033;DHT22;24794;51.982;5.878;2023-01-29T03:57:07;2.80;99.90
39033;DHT22;24794;51.982;5.878;2023-01-29T03:58:38;2.80;99.90
39033;DHT22;24794;51.982;5.878;2023-01-29T04:01:00;2.90;99.90
39033;DHT22;24794;51.982;5.878;2023-01-29T04:02:05;2.80;99.90
39033;DHT22;24794;51.982;5.878;2023-01-29T04:03:20;2.80;99.90
39033;DHT22;24794;51.982;5.878;2023-01-29T04:04:26;2.80;99.90
39033;DHT22;24794;51.982;5.878;2023-01-29T04:05:32;2.80;99.90
39033;DHT22;24794;51.982;5.878;2023-01-29T04:06:36;2.80;99.90
39033;DHT22;24794;51.982;5.878;2023-01-29T04:07:39;2.80;99.90
39033;DHT22;24794;51.982;5.878;2023-01-29T04:10:16;2.80;99.90
39033;DHT22;24794;51.982;5.878;2023-01-29T04:11:19;2.80;99.90
39033;DHT22;24794;51.982;5.878;2023-01-29T04:12:27;2.80;99.90
39033;DHT22;24794;51.982;5.878;2023-01-29T04:13:29;2.80;99.90
39033;DHT22;24794;51.982;5.878;2023-01-29T04:14:33;2.80;99.90
39033;DHT22;24794;51.982;5.878;2023-01-29T04:15:40;2.80;99.90
39033;DHT22;24794;51.982;5.878;2023-01-29T04:16:47;2.80;99.90
39033;DHT22;24794;51.982;5.878;2023-01-29T04:17:51;2.80;99.90
39033;DHT22;24794;51.982;5.878;2023-01-29T04:18:52;2.80;99.90
39033;DHT22;24794;51.982;5.878;2023-01-29T04:19:54;2.90;99.90
39033;DHT22;24794;51.982;5.878;2023-01-29T04:20:55;2.90;99.90
39033;DHT22;24794;51.982;5.878;2023-01-29T04:22:08;2.90;99.90
39033;DHT22;24794;51.982;5.878;2023-01-29T04:23:38;2.90;99.90
39033;DHT22;24794;51.982;5.878;2023-01-29T04:24:39;2.90;99.90
39033;DHT22;24794;51.982;5.878;2023-01-29T04:25:45;2.80;99.90
39033;DHT22;24794;51.982;5.878;2023-01-29T04:27:09;2.80;99.90
39033;DHT22;24794;51.982;5.878;2023-01-29T04:28:20;2.80;99.90
39033;DHT22;24794;51.982;5.878;2023-01-29T04:31:07;2.90;99.90
39033;DHT22;24794;51.982;5.878;2023-01-29T04:35:05;2.80;99.90
39033;DHT22;24794;51.982;5.878;2023-01-29T04:41:10;2.70;99.90
39033;DHT22;24794;51.982;5.878;2023-01-29T04:42:19;2.70;99.90
39033;DHT22;24794;51.982;5.878;2023-01-29T04:43:30;2.70;99.90
39033;DHT22;24794;51.982;5.878;2023-01-29T04:44:43;2.80;99.90
39033;DHT22;24794;51.982;5.878;2023-01-29T04:45:57;2.80;99.90
39033;DHT22;24794;51.982;5.878;2023-01-29T04:47:20;2.80;99.90
39033;DHT22;24794;51.982;5.878;2023-01-29T04:51:44;2.80;99.90
39033;DHT22;24794;51.982;5.878;2023-01-29T04:52:49;2.80;99.90
39033;DHT22;24794;51.982;5.878;2023-01-29T04:54:11;2.80;99.90
39033;DHT22;24794;51.982;5.878;2023-01-29T04:55:45;2.80;99.90
39033;DHT22;24794;51.982;5.878;2023-01-29T04:59:44;2.70;99.90
39033;DHT22;24794;51.982;5.878;2023-01-29T05:00:48;2.70;99.90
39033;DHT22;24794;51.982;5.878;2023-01-29T05:01:52;2.70;99.90
39033;DHT22;24794;51.982;5.878;2023-01-29T05:02:53;2.70;99.90
39033;DHT22;24794;51.982;5.878;2023-01-29T05:03:55;2.70;99.90
39033;DHT22;24794;51.982;5.878;2023-01-29T05:04:57;2.70;99.90
39033;DHT22;24794;51.982;5.878;2023-01-29T05:05:59;2.70;99.90
39033;DHT22;24794;51.982;5.878;2023-01-29T05:07:03;2.70;99.90
39033;DHT22;24794;51.982;5.878;2023-01-29T05:08:06;2.70;99.90
39033;DHT22;24794;51.982;5.878;2023-01-29T05:09:08;2.70;99.90
39033;DHT22;24794;51.982;5.878;2023-01-29T05:10:10;2.70;99.90
39033;DHT22;24794;51.982;5.878;2023-01-29T05:11:12;2.80;99.90
39033;DHT22;24794;51.982;5.878;2023-01-29T05:12:15;2.80;99.90
39033;DHT22;24794;51.982;5.878;2023-01-29T05:13:18;2.80;99.90
39033;DHT22;24794;51.982;5.878;2023-01-29T05:14:20;2.80;99.90
39033;DHT22;24794;51.982;5.878;2023-01-29T05:15:25;2.80;99.90
39033;DHT22;24794;51.982;5.878;2023-01-29T05:16:30;2.80;99.90
39033;DHT22;24794;51.982;5.878;2023-01-29T05:17:41;2.80;99.90
39033;DHT22;24794;51.982;5.878;2023-01-29T05:18:42;2.80;99.90
39033;DHT22;24794;51.982;5.878;2023-01-29T05:19:43;2.80;99.90
39033;DHT22;24794;51.982;5.878;2023-01-29T05:20:46;2.80;99.90
39033;DHT22;24794;51.982;5.878;2023-01-29T05:21:48;2.80;99.90
39033;DHT22;24794;51.982;5.878;2023-01-29T05:22:49;2.80;99.90
39033;DHT22;24794;51.982;5.878;2023-01-29T05:24:09;2.80;99.90
39033;DHT22;24794;51.982;5.878;2023-01-29T05:25:24;2.90;99.90
39033;DHT22;24794;51.982;5.878;2023-01-29T05:26:26;2.90;99.90
39033;DHT22;24794;51.982;5.878;2023-01-29T05:27:45;2.90;99.90
39033;DHT22;24794;51.982;5.878;2023-01-29T05:29:06;2.90;99.90
39033;DHT22;24794;51.982;5.878;2023-01-29T05:30:08;2.90;99.90
39033;DHT22;24794;51.982;5.878;2023-01-29T05:31:09;2.80;99.90
39033;DHT22;24794;51.982;5.878;2023-01-29T05:32:10;2.80;99.90
39033;DHT22;24794;51.982;5.878;2023-01-29T05:33:14;2.80;99.90
39033;DHT22;24794;51.982;5.878;2023-01-29T05:34:15;2.80;99.90
39033;DHT22;24794;51.982;5.878;2023-01-29T05:35:16;2.80;99.90
39033;DHT22;24794;51.982;5.878;2023-01-29T05:36:16;2.80;99.90
39033;DHT22;24794;51.982;5.878;2023-01-29T05:37:17;2.80;99.90
39033;DHT22;24794;51.982;5.878;2023-01-29T05:38:18;2.80;99.90
39033;DHT22;24794;51.982;5.878;2023-01-29T05:39:19;2.90;99.90
39033;DHT22;24794;51.982;5.878;2023-01-29T05:40:20;2.80;99.90
39033;DHT22;24794;51.982;5.878;2023-01-29T05:41:20;2.80;99.90
39033;DHT22;24794;51.982;5.878;2023-01-29T05:42:21;2.80;99.90
39033;DHT22;24794;51.982;5.878;2023-01-29T05:43:23;2.80;99.90
39033;DHT22;24794;51.982;5.878;2023-01-29T05:44:24;2.80;99.90
39033;DHT22;24794;51.982;5.878;2023-01-29T05:45:24;2.80;99.90
39033;DHT22;24794;51.982;5.878;2023-01-29T05:46:25;2.80;99.90
39033;DHT22;24794;51.982;5.878;2023-01-29T05:47:26;2.80;99.90
39033;DHT22;24794;51.982;5.878;2023-01-29T05:48:28;2.80;99.90
39033;DHT22;24794;51.982;5.878;2023-01-29T05:49:28;2.80;99.90
39033;DHT22;24794;51.982;5.878;2023-01-29T05:50:30;2.80;99.90
39033;DHT22;24794;51.982;5.878;2023-01-29T05:51:31;2.80;99.90
39033;DHT22;24794;51.982;5.878;2023-01-29T05:52:31;2.80;99.90
39033;DHT22;24794;51.982;5.878;2023-01-29T05:53:32;2.80;99.90
39033;DHT22;24794;51.982;5.878;2023-01-29T05:54:33;2.80;99.90
39033;DHT22;24794;51.982;5.878;2023-01-29T05:55:33;2.80;99.90
39033;DHT22;24794;51.982;5.878;2023-01-29T05:56:34;2.80;99.90
39033;DHT22;24794;51.982;5.878;2023-01-29T05:57:35;2.80;99.90
39033;DHT22;24794;51.982;5.878;2023-01-29T05:58:35;2.90;99.90
39033;DHT22;24794;51.982;5.878;2023-01-29T05:59:36;2.90;99.90
39033;DHT22;24794;51.982;5.878;2023-01-29T06:00:37;2.90;99.90
39033;DHT22;24794;51.982;5.878;2023-01-29T06:01:38;2.90;99.90
39033;DHT22;24794;51.982;5.878;2023-01-29T06:02:39;2.90;99.90
39033;DHT22;24794;51.982;5.878;2023-01-29T06:03:39;2.80;99.90
39033;DHT22;24794;51.982;5.878;2023-01-29T06:04:40;2.90;99.90
39033;DHT22;24794;51.982;5.878;2023-01-29T06:05:41;2.90;99.90
39033;DHT22;24794;51.982;5.878;2023-01-29T06:06:41;2.90;99.90
39033;DHT22;24794;51.982;5.878;2023-01-29T06:07:42;2.80;99.90
39033;DHT22;24794;51.982;5.878;2023-01-29T06:08:44;2.90;99.90
39033;DHT22;24794;51.982;5.878;2023-01-29T06:09:45;2.90;99.90
39033;DHT22;24794;51.982;5.878;2023-01-29T06:10:46;2.90;99.90
39033;DHT22;24794;51.982;5.878;2023-01-29T06:11:46;2.90;99.90
39033;DHT22;24794;51.982;5.878;2023-01-29T06:12:47;2.90;99.90
39033;DHT22;24794;51.982;5.878;2023-01-29T06:13:48;2.90;99.90
39033;DHT22;24794;51.982;5.878;2023-01-29T06:14:48;2.90;99.90
39033;DHT22;24794;51.982;5.878;2023-01-29T06:15:49;2.90;99.90
39033;DHT22;24794;51.982;5.878;2023-01-29T06:16:50;2.90;99.90
39033;DHT22;24794;51.982;5.878;2023-01-29T06:17:55;2.90;99.90
39033;DHT22;24794;51.982;5.878;2023-01-29T06:18:55;3.00;99.90
39033;DHT22;24794;51.982;5.878;2023-01-29T06:19:56;3.00;99.90
39033;DHT22;24794;51.982;5.878;2023-01-29T06:21:00;2.90;99.90
39033;DHT22;24794;51.982;5.878;2023-01-29T06:22:01;3.00;99.90
39033;DHT22;24794;51.982;5.878;2023-01-29T06:23:02;3.00;99.90
39033;DHT22;24794;51.982;5.878;2023-01-29T06:24:03;3.00;99.90
39033;DHT22;24794;51.982;5.878;2023-01-29T06:25:04;3.00;99.90
39033;DHT22;24794;51.982;5.878;2023-01-29T06:26:08;3.00;99.90
39033;DHT22;24794;51.982;5.878;2023-01-29T06:27:09;3.00;99.90
39033;DHT22;24794;51.982;5.878;2023-01-29T06:28:10;3.00;99.90
39033;DHT22;24794;51.982;5.878;2023-01-29T06:29:10;3.00;99.90
39033;DHT22;24794;51.982;5.878;2023-01-29T06:30:11;3.00;99.90
39033;DHT22;24794;51.982;5.878;2023-01-29T06:31:12;3.00;99.90
39033;DHT22;24794;51.982;5.878;2023-01-29T06:32:12;3.00;99.90
39033;DHT22;24794;51.982;5.878;2023-01-29T06:33:13;3.00;99.90
39033;DHT22;24794;51.982;5.878;2023-01-29T06:34:14;3.00;99.90
39033;DHT22;24794;51.982;5.878;2023-01-29T06:35:14;3.00;99.90
39033;DHT22;24794;51.982;5.878;2023-01-29T06:36:15;3.00;99.90
39033;DHT22;24794;51.982;5.878;2023-01-29T06:37:15;3.00;99.90
39033;DHT22;24794;51.982;5.878;2023-01-29T06:38:16;3.00;99.90
39033;DHT22;24794;51.982;5.878;2023-01-29T06:39:16;3.00;99.90
39033;DHT22;24794;51.982;5.878;2023-01-29T06:40:17;3.00;99.90
39033;DHT22;24794;51.982;5.878;2023-01-29T06:41:19;3.00;99.90
39033;DHT22;24794;51.982;5.878;2023-01-29T06:42:24;3.10;99.90
39033;DHT22;24794;51.982;5.878;2023-01-29T06:43:27;3.00;99.90
39033;DHT22;24794;51.982;5.878;2023-01-29T06:44:27;3.00;99.90
39033;DHT22;24794;51.982;5.878;2023-01-29T06:45:28;3.00;99.90
39033;DHT22;24794;51.982;5.878;2023-01-29T06:46:29;3.00;99.90
39033;DHT22;24794;51.982;5.878;2023-01-29T06:47:29;3.00;99.90
39033;DHT22;24794;51.982;5.878;2023-01-29T06:48:30;3.10;99.90
39033;DHT22;24794;51.982;5.878;2023-01-29T06:49:31;3.00;99.90
39033;DHT22;24794;51.982;5.878;2023-01-29T06:50:31;3.00;99.90
39033;DHT22;24794;51.982;5.878;2023-01-29T06:51:32;3.00;99.90
39033;DHT22;24794;51.982;5.878;2023-01-29T06:52:32;3.00;99.90
39033;DHT22;24794;51.982;5.878;2023-01-29T06:53:33;3.00;99.90
39033;DHT22;24794;51.982;5.878;2023-01-29T06:54:34;3.00;99.90
39033;DHT22;24794;51.982;5.878;2023-01-29T06:55:35;3.00;99.90
39033;DHT22;24794;51.982;5.878;2023-01-29T06:56:36;3.00;99.90
39033;DHT22;24794;51.982;5.878;2023-01-29T06:57:36;3.10;99.90
39033;DHT22;24794;51.982;5.878;2023-01-29T06:58:37;3.10;99.90
39033;DHT22;24794;51.982;5.878;2023-01-29T06:59:38;3.10;99.90
39033;DHT22;24794;51.982;5.878;2023-01-29T07:00:38;3.10;99.90
39033;DHT22;24794;51.982;5.878;2023-01-29T07:01:40;3.10;99.90
39033;DHT22;24794;51.982;5.878;2023-01-29T07:02:41;3.10;99.90
39033;DHT22;24794;51.982;5.878;2023-01-29T07:03:42;3.10;99.90
39033;DHT22;24794;51.982;5.878;2023-01-29T07:04:43;3.10;99.90
39033;DHT22;24794;51.982;5.878;2023-01-29T07:05:50;3.10;99.90
39033;DHT22;24794;51.982;5.878;2023-01-29T07:06:51;3.10;99.90
39033;DHT22;24794;51.982;5.878;2023-01-29T07:07:52;3.10;99.90
39033;DHT22;24794;51.982;5.878;2023-01-29T07:08:52;3.10;99.90
39033;DHT22;24794;51.982;5.878;2023-01-29T07:09:53;3.10;99.90
39033;DHT22;24794;51.982;5.878;2023-01-29T07:11:00;3.10;99.90
39033;DHT22;24794;51.982;5.878;2023-01-29T07:12:01;3.00;99.90
39033;DHT22;24794;51.982;5.878;2023-01-29T07:13:01;3.00;99.90
39033;DHT22;24794;51.982;5.878;2023-01-29T07:14:02;3.00;99.90
39033;DHT22;24794;51.982;5.878;2023-01-29T07:15:03;3.10;99.90
39033;DHT22;24794;51.982;5.878;2023-01-29T07:16:04;3.10;99.90
39033;DHT22;24794;51.982;5.878;2023-01-29T07:17:06;3.10;99.90
39033;DHT22;24794;51.982;5.878;2023-01-29T07:18:06;3.10;99.90
39033;DHT22;24794;51.982;5.878;2023-01-29T07:19:11;3.10;99.90
39033;DHT22;24794;51.982;5.878;2023-01-29T07:20:12;3.10;99.90
39033;DHT22;24794;51.982;5.878;2023-01-29T07:21:13;3.10;99.90
39033;DHT22;24794;51.982;5.878;2023-01-29T07:22:13;3.20;99.90
39033;DHT22;24794;51.982;5.878;2023-01-29T07:23:15;3.10;99.90
39033;DHT22;24794;51.982;5.878;2023-01-29T07:24:16;3.20;99.90
39033;DHT22;24794;51.982;5.878;2023-01-29T07:25:19;3.20;99.90
39033;DHT22;24794;51.982;5.878;2023-01-29T07:26:20;3.20;99.90
39033;DHT22;24794;51.982;5.878;2023-01-29T07:27:20;3.20;99.90
39033;DHT22;24794;51.982;5.878;2023-01-29T07:28:21;3.20;99.90
39033;DHT22;24794;51.982;5.878;2023-01-29T07:29:22;3.10;99.90
39033;DHT22;24794;51.982;5.878;2023-01-29T07:30:22;3.10;99.90
39033;DHT22;24794;51.982;5.878;2023-01-29T07:31:23;3.10;99.90
39033;DHT22;24794;51.982;5.878;2023-01-29T07:32:23;3.10;99.90
39033;DHT22;24794;51.982;5.878;2023-01-29T07:33:24;3.10;99.90
39033;DHT22;24794;51.982;5.878;2023-01-29T07:34:25;3.10;99.90
39033;DHT22;24794;51.982;5.878;2023-01-29T07:35:26;3.10;99.90
39033;DHT22;24794;51.982;5.878;2023-01-29T07:36:27;3.10;99.90
39033;DHT22;24794;51.982;5.878;2023-01-29T07:37:27;3.10;99.90
39033;DHT22;24794;51.982;5.878;2023-01-29T07:38:28;3.10;99.90
39033;DHT22;24794;51.982;5.878;2023-01-29T07:39:28;3.10;99.90
39033;DHT22;24794;51.982;5.878;2023-01-29T07:40:29;3.10;99.90
39033;DHT22;24794;51.982;5.878;2023-01-29T07:41:30;3.10;99.90
39033;DHT22;24794;51.982;5.878;2023-01-29T07:42:30;3.10;99.90